createdAt,value
2018-12-12T00:00:09.301Z,5.90
2018-12-12T00:02:37.522Z,7.80
2018-12-12T00:05:05.495Z,7.23
2018-12-12T00:07:33.405Z,7.67
2018-12-12T00:10:01.456Z,7.97
2018-12-12T00:12:39.648Z,7.33
2018-12-12T00:15:07.889Z,5.93
2018-12-12T00:17:36.123Z,8.10
2018-12-12T00:20:04.820Z,6.73
2018-12-12T00:22:32.749Z,7.67
2018-12-12T00:25:00.707Z,6.93
2018-12-12T00:27:28.716Z,5.33
2018-12-12T00:29:56.586Z,8.30
2018-12-12T00:32:24.452Z,6.53
2018-12-12T00:34:52.355Z,11.23
2018-12-12T00:37:20.208Z,7.77
2018-12-12T00:39:48.085Z,7.77
2018-12-12T00:42:16.012Z,6.07
2018-12-12T00:44:43.926Z,6.67
2018-12-12T00:47:11.879Z,9.83
2018-12-12T00:49:39.871Z,7.93
2018-12-12T00:52:07.782Z,7.97
2018-12-12T00:54:35.905Z,8.10
2018-12-12T00:57:03.969Z,7.57
2018-12-12T00:59:31.857Z,7.93
2018-12-12T01:01:59.732Z,18.73
2018-12-12T01:04:27.615Z,7.70
2018-12-12T01:06:55.644Z,6.77
2018-12-12T01:09:23.512Z,8.20
2018-12-12T01:11:56.923Z,6.40
2018-12-12T01:14:25.060Z,7.10
2018-12-12T01:16:52.980Z,6.10
2018-12-12T01:19:20.833Z,5.37
2018-12-12T01:21:48.789Z,7.13
2018-12-12T01:24:16.765Z,6.93
2018-12-12T01:26:44.618Z,6.77
2018-12-12T01:29:12.531Z,6.90
2018-12-12T01:31:40.473Z,6.43
2018-12-12T01:34:08.412Z,8.47
2018-12-12T01:36:36.293Z,7.07
2018-12-12T01:39:06.286Z,7.57
2018-12-12T01:41:34.213Z,6.83
2018-12-12T01:44:02.141Z,6.20
2018-12-12T01:46:30.055Z,8.40
2018-12-12T01:48:57.990Z,7.53
2018-12-12T01:51:25.897Z,7.93
2018-12-12T01:53:53.768Z,5.27
2018-12-12T01:56:21.692Z,6.47
2018-12-12T01:58:49.561Z,7.87
2018-12-12T02:01:17.543Z,6.53
2018-12-12T02:03:45.386Z,6.03
2018-12-12T02:06:13.288Z,11.37
2018-12-12T02:08:41.249Z,6.70
2018-12-12T02:11:09.228Z,7.47
2018-12-12T02:13:37.180Z,7.87
2018-12-12T02:16:07.650Z,7.43
2018-12-12T02:18:37.932Z,7.20
2018-12-12T02:21:05.834Z,9.20
2018-12-12T02:23:33.719Z,6.10
2018-12-12T02:26:01.664Z,8.10
2018-12-12T02:28:29.627Z,8.90
2018-12-12T02:30:57.496Z,7.20
2018-12-12T02:33:25.415Z,8.83
2018-12-12T02:35:53.305Z,9.90
2018-12-12T02:38:21.296Z,11.63
2018-12-12T02:40:49.152Z,6.30
2018-12-12T02:43:17.076Z,6.63
2018-12-12T02:45:44.989Z,6.67
2018-12-12T02:48:14.921Z,8.40
2018-12-12T02:50:42.913Z,6.23
2018-12-12T02:53:10.864Z,5.50
2018-12-12T02:55:38.764Z,5.53
2018-12-12T02:58:06.694Z,7.17
2018-12-12T03:00:34.634Z,6.30
2018-12-12T03:03:02.550Z,6.67
2018-12-12T03:05:30.537Z,9.03
2018-12-12T03:07:58.455Z,7.83
2018-12-12T03:10:26.383Z,10.37
2018-12-12T03:12:54.388Z,9.87
2018-12-12T03:15:22.253Z,6.43
2018-12-12T03:17:50.260Z,12.83
2018-12-12T03:20:18.201Z,6.70
2018-12-12T03:22:46.095Z,6.87
2018-12-12T03:25:14.078Z,8.87
2018-12-12T03:27:41.997Z,8.23
2018-12-12T03:30:09.939Z,8.23
2018-12-12T03:32:37.846Z,9.03
2018-12-12T03:35:06.008Z,7.90
2018-12-12T03:37:33.916Z,10.13
2018-12-12T03:40:02.136Z,8.67
2018-12-12T03:42:30.429Z,6.87
2018-12-12T03:44:58.334Z,9.07
2018-12-12T03:47:26.241Z,7.40
2018-12-12T03:49:54.143Z,7.53
2018-12-12T03:52:22.193Z,7.33
2018-12-12T03:54:50.055Z,7.03
2018-12-12T03:57:17.998Z,6.10
2018-12-12T03:59:45.900Z,7.53
2018-12-12T04:02:13.787Z,11.23
2018-12-12T04:04:41.658Z,8.13
2018-12-12T04:07:09.560Z,9.63
2018-12-12T04:09:37.472Z,9.37
2018-12-12T04:12:05.415Z,10.60
2018-12-12T04:14:33.349Z,7.53
2018-12-12T04:17:01.241Z,9.13
2018-12-12T04:19:29.262Z,7.90
2018-12-12T04:21:57.317Z,8.27
2018-12-12T04:24:26.628Z,7.57
2018-12-12T04:26:54.538Z,8.27
2018-12-12T04:29:22.427Z,8.77
2018-12-12T04:31:50.325Z,11.77
2018-12-12T04:34:18.166Z,9.00
2018-12-12T04:36:46.120Z,7.83
2018-12-12T04:39:14.080Z,11.23
2018-12-12T04:41:42.076Z,9.47
2018-12-12T04:44:10.924Z,10.60
2018-12-12T04:46:38.884Z,7.43
2018-12-12T04:49:06.779Z,9.70
2018-12-12T04:51:34.693Z,7.27
2018-12-12T04:54:02.600Z,8.30
2018-12-12T04:56:30.481Z,7.17
2018-12-12T04:58:58.700Z,10.13
2018-12-12T05:01:26.583Z,7.60
2018-12-12T05:03:54.464Z,6.13
2018-12-12T05:06:22.416Z,9.40
2018-12-12T05:08:50.314Z,7.03
2018-12-12T05:11:18.218Z,7.37
2018-12-12T05:13:46.131Z,7.97
2018-12-12T05:16:14.018Z,7.33
2018-12-12T05:18:42.129Z,9.10
2018-12-12T05:21:10.053Z,6.57
2018-12-12T05:23:38.156Z,7.57
2018-12-12T05:26:06.007Z,6.70
2018-12-12T05:28:33.954Z,10.67
2018-12-12T05:31:01.845Z,7.10
2018-12-12T05:33:29.756Z,9.33
2018-12-12T05:35:57.635Z,8.60
2018-12-12T05:38:25.679Z,6.93
2018-12-12T05:40:53.570Z,8.30
2018-12-12T05:43:21.517Z,7.60
2018-12-12T05:45:49.718Z,9.97
2018-12-12T05:48:17.587Z,7.83
2018-12-12T05:50:45.487Z,9.57
2018-12-12T05:53:13.342Z,9.43
2018-12-12T05:55:41.312Z,9.07
2018-12-12T05:58:09.185Z,12.00
2018-12-12T06:00:37.299Z,6.90
2018-12-12T06:03:05.307Z,9.40
2018-12-12T06:05:33.457Z,8.47
2018-12-12T06:08:01.369Z,9.50
2018-12-12T06:10:29.317Z,8.53
2018-12-12T06:12:57.996Z,7.77
2018-12-12T06:15:26.059Z,9.40
2018-12-12T06:17:53.949Z,8.90
2018-12-12T06:20:21.911Z,10.00
2018-12-12T06:22:49.835Z,7.83
2018-12-12T06:25:17.730Z,7.03
2018-12-12T06:27:45.688Z,9.60
2018-12-12T06:30:13.631Z,8.43
2018-12-12T06:32:41.555Z,9.60
2018-12-12T06:35:09.543Z,9.33
2018-12-12T06:37:37.462Z,7.37
2018-12-12T06:40:05.661Z,7.60
2018-12-12T06:42:33.529Z,8.60
2018-12-12T06:45:01.459Z,8.17
2018-12-12T06:47:29.422Z,9.20
2018-12-12T06:49:57.333Z,7.73
2018-12-12T06:52:25.285Z,6.13
2018-12-12T06:54:53.205Z,6.73
2018-12-12T06:57:21.121Z,9.60
2018-12-12T06:59:49.066Z,8.40
2018-12-12T07:02:17.012Z,6.97
2018-12-12T07:04:45.048Z,7.40
2018-12-12T07:07:13.274Z,11.63
2018-12-12T07:09:41.174Z,9.83
2018-12-12T07:12:09.176Z,8.60
2018-12-12T07:14:37.058Z,7.87
2018-12-12T07:17:04.940Z,8.70
2018-12-12T07:19:32.977Z,10.30
2018-12-12T07:22:00.906Z,8.47
2018-12-12T07:24:28.814Z,8.90
2018-12-12T07:26:56.767Z,8.53
2018-12-12T07:29:24.687Z,10.47
2018-12-12T07:31:52.608Z,11.33
2018-12-12T07:34:20.535Z,11.67
2018-12-12T07:36:48.632Z,9.90
2018-12-12T07:39:18.024Z,9.00
2018-12-12T07:41:46.258Z,13.63
2018-12-12T07:44:14.308Z,10.67
2018-12-12T07:46:42.550Z,8.10
2018-12-12T07:49:10.450Z,7.87
2018-12-12T07:51:38.527Z,8.13
2018-12-12T07:54:06.456Z,10.23
2018-12-12T07:56:34.330Z,11.67
2018-12-12T07:59:02.354Z,11.27
2018-12-12T08:01:30.248Z,8.97
2018-12-12T08:03:58.153Z,9.30
2018-12-12T08:06:26.238Z,9.30
2018-12-12T08:08:54.112Z,7.77
2018-12-12T08:11:22.029Z,10.87
2018-12-12T08:13:49.949Z,8.77
2018-12-12T08:16:18.010Z,11.13
2018-12-12T08:18:46.055Z,9.70
2018-12-12T08:21:13.967Z,6.93
2018-12-12T08:23:41.847Z,8.57
2018-12-12T08:26:09.988Z,7.93
2018-12-12T08:28:38.011Z,10.30
2018-12-12T08:31:05.995Z,7.70
2018-12-12T08:33:33.848Z,8.97
2018-12-12T08:36:01.788Z,12.17
2018-12-12T08:38:29.717Z,10.80
2018-12-12T08:40:57.727Z,9.50
2018-12-12T08:43:25.653Z,14.77
2018-12-12T08:45:53.516Z,12.93
2018-12-12T08:48:21.644Z,14.47
2018-12-12T08:50:49.605Z,13.00
2018-12-12T08:53:17.457Z,11.17
2018-12-12T08:55:45.343Z,12.07
2018-12-12T08:58:13.214Z,10.33
2018-12-12T09:00:41.144Z,9.40
2018-12-12T09:03:09.036Z,9.80
2018-12-12T09:05:37.080Z,13.17
2018-12-12T09:08:04.948Z,11.07
2018-12-12T09:10:32.852Z,9.07
2018-12-12T09:13:00.744Z,8.10
2018-12-12T09:15:28.796Z,9.57
2018-12-12T09:17:56.646Z,8.83
2018-12-12T09:20:24.502Z,8.17
2018-12-12T09:22:52.379Z,9.37
2018-12-12T09:25:20.287Z,9.93
2018-12-12T09:27:48.351Z,12.93
2018-12-12T09:30:16.251Z,11.63
2018-12-12T09:32:44.173Z,9.60
2018-12-12T09:35:12.108Z,9.00
2018-12-12T09:37:40.062Z,9.27
2018-12-12T09:40:07.960Z,11.37
2018-12-12T09:42:35.914Z,8.63
2018-12-12T09:45:04.933Z,12.60
2018-12-12T09:47:33.355Z,11.17
2018-12-12T09:50:01.272Z,9.70
2018-12-12T09:52:29.145Z,8.00
2018-12-12T09:54:57.088Z,9.43
2018-12-12T09:57:24.990Z,9.03
2018-12-12T09:59:52.984Z,10.30
2018-12-12T10:02:20.892Z,9.37
2018-12-12T10:04:48.757Z,9.63
2018-12-12T10:07:16.745Z,11.17
2018-12-12T10:09:44.615Z,8.80
2018-12-12T10:12:12.556Z,9.20
2018-12-12T10:14:40.488Z,8.97
2018-12-12T10:17:08.435Z,12.53
2018-12-12T10:19:36.308Z,9.63
2018-12-12T10:22:04.524Z,11.53
2018-12-12T10:24:32.766Z,9.17
2018-12-12T10:27:00.689Z,9.73
2018-12-12T10:29:28.613Z,10.50
2018-12-12T10:31:56.499Z,8.93
2018-12-12T10:34:24.446Z,8.93
2018-12-12T10:36:52.352Z,9.40
2018-12-12T10:39:20.280Z,10.77
2018-12-12T10:41:48.203Z,11.80
2018-12-12T10:44:16.056Z,7.77
2018-12-12T10:46:43.944Z,8.67
2018-12-12T10:49:11.809Z,9.50
2018-12-12T10:51:39.752Z,8.27
2018-12-12T10:54:07.612Z,8.93
2018-12-12T10:56:35.576Z,11.63
2018-12-12T10:59:03.546Z,7.90
2018-12-12T11:01:37.097Z,6.90
2018-12-12T11:04:05.085Z,6.63
2018-12-12T11:06:32.981Z,5.83
2018-12-12T11:09:00.910Z,6.97
2018-12-12T11:11:28.832Z,6.83
2018-12-12T11:13:56.710Z,8.37
2018-12-12T11:16:24.666Z,6.53
2018-12-12T11:18:52.611Z,6.70
2018-12-12T11:21:20.513Z,6.40
2018-12-12T11:23:48.400Z,8.47
2018-12-12T11:26:16.278Z,8.50
2018-12-12T11:28:44.190Z,6.03
2018-12-12T11:31:12.106Z,6.03
2018-12-12T11:33:40.012Z,5.13
2018-12-12T11:36:07.977Z,5.70
2018-12-12T11:38:35.923Z,5.70
2018-12-12T11:41:03.891Z,5.70
2018-12-12T11:43:31.804Z,5.47
2018-12-12T11:45:59.697Z,4.10
2018-12-12T11:48:27.653Z,3.33
2018-12-12T11:50:55.660Z,3.00
2018-12-12T11:53:23.620Z,4.00
2018-12-12T11:55:51.554Z,3.67
2018-12-12T11:58:19.473Z,3.80
2018-12-12T12:00:47.324Z,3.23
2018-12-12T12:03:15.259Z,2.83
2018-12-12T12:05:43.161Z,5.20
2018-12-12T12:08:11.080Z,3.67
2018-12-12T12:10:39.017Z,4.37
2018-12-12T12:13:06.970Z,4.30
2018-12-12T12:15:35.132Z,3.17
2018-12-12T12:18:03.036Z,3.33
2018-12-12T12:20:30.927Z,4.13
2018-12-12T12:22:58.950Z,4.17
2018-12-12T12:25:26.960Z,3.60
2018-12-12T12:27:54.956Z,5.10
2018-12-12T12:30:22.903Z,4.03
2018-12-12T12:32:50.815Z,3.97
2018-12-12T12:35:18.721Z,5.63
2018-12-12T12:37:46.563Z,5.07
2018-12-12T12:40:14.509Z,4.47
2018-12-12T12:42:42.397Z,4.97
2018-12-12T12:45:10.428Z,7.47
2018-12-12T12:50:36.808Z,5.40
2018-12-12T12:53:04.788Z,5.60
2018-12-12T12:55:32.680Z,5.07
2018-12-12T12:58:00.609Z,5.73
2018-12-12T13:00:28.535Z,5.67
2018-12-12T13:02:56.603Z,7.30
2018-12-12T13:05:24.656Z,6.00
2018-12-12T13:07:52.701Z,6.87
2018-12-12T13:10:20.848Z,4.40
2018-12-12T13:12:49.093Z,5.67
2018-12-12T13:15:17.385Z,5.87
2018-12-12T13:17:45.280Z,5.73
2018-12-12T13:20:13.263Z,7.40
2018-12-12T13:22:57.362Z,5.13
2018-12-12T13:25:25.315Z,6.17
2018-12-12T13:27:53.237Z,7.47
2018-12-12T13:30:21.177Z,8.80
2018-12-12T13:32:49.052Z,7.03
2018-12-12T13:35:16.918Z,5.97
2018-12-12T13:37:44.892Z,7.97
2018-12-12T13:40:12.817Z,6.50
2018-12-12T13:42:40.719Z,5.93
2018-12-12T13:45:09.271Z,6.50
2018-12-12T13:47:37.137Z,7.03
2018-12-12T13:50:05.251Z,7.10
2018-12-12T13:52:33.177Z,6.97
2018-12-12T13:55:01.048Z,6.23
2018-12-12T13:57:28.939Z,7.10
2018-12-12T13:59:57.771Z,8.10
2018-12-12T14:02:25.791Z,6.27
2018-12-12T14:04:54.742Z,6.90
2018-12-12T14:07:28.954Z,8.83
2018-12-12T14:10:02.115Z,8.53
2018-12-12T14:12:29.976Z,6.40
2018-12-12T14:14:57.885Z,7.07
2018-12-12T14:17:25.796Z,7.77
2018-12-12T14:19:53.737Z,6.83
2018-12-12T14:22:21.753Z,8.30
2018-12-12T14:24:49.684Z,8.10
2018-12-12T14:27:17.622Z,6.17
2018-12-12T14:29:45.548Z,5.70
2018-12-12T14:32:13.394Z,6.83
2018-12-12T14:34:41.243Z,5.73
2018-12-12T14:37:09.170Z,6.83
2018-12-12T14:39:37.044Z,8.03
2018-12-12T14:42:04.973Z,7.13
2018-12-12T14:44:32.869Z,7.13
2018-12-12T14:47:00.893Z,6.97
2018-12-12T14:49:28.904Z,7.30
2018-12-12T14:51:56.775Z,8.83
2018-12-12T14:54:24.728Z,8.13
2018-12-12T14:56:52.732Z,6.83
2018-12-12T14:59:20.618Z,7.57
2018-12-12T15:01:48.654Z,7.97
2018-12-12T15:04:16.584Z,7.27
2018-12-12T15:06:44.521Z,5.93
2018-12-12T15:09:12.419Z,6.97
2018-12-12T15:11:40.497Z,7.07
2018-12-12T15:14:08.364Z,9.67
2018-12-12T15:16:36.280Z,13.37
2018-12-12T15:19:05.335Z,9.87
2018-12-12T15:21:34.626Z,8.67
2018-12-12T15:24:02.677Z,8.03
2018-12-12T15:26:30.562Z,8.30
2018-12-12T15:28:58.424Z,7.03
2018-12-12T15:31:26.454Z,10.10
2018-12-12T15:33:54.344Z,8.27
2018-12-12T15:36:22.207Z,8.90
2018-12-12T15:38:50.102Z,12.03
2018-12-12T15:41:17.987Z,9.43
2018-12-12T15:43:45.876Z,10.97
2018-12-12T15:46:13.761Z,11.00
2018-12-12T15:48:41.803Z,9.57
2018-12-12T15:51:09.724Z,9.10
2018-12-12T15:53:37.648Z,10.87
2018-12-12T15:56:05.619Z,10.23
2018-12-12T15:58:33.482Z,9.47
2018-12-12T16:01:01.446Z,9.23
2018-12-12T16:03:29.396Z,10.20
2018-12-12T16:05:57.400Z,7.87
2018-12-12T16:08:25.301Z,9.00
2018-12-12T16:10:53.183Z,12.57
2018-12-12T16:13:21.149Z,9.23
2018-12-12T16:15:49.057Z,9.83
2018-12-12T16:18:16.918Z,11.57
2018-12-12T16:20:44.807Z,9.43
2018-12-12T16:23:12.660Z,10.37
2018-12-12T16:25:40.557Z,9.10
2018-12-12T16:28:08.509Z,9.90
2018-12-12T16:30:36.385Z,10.17
2018-12-12T16:33:04.342Z,10.17
2018-12-12T16:35:32.272Z,8.60
2018-12-12T16:38:00.172Z,8.53
2018-12-12T16:40:28.070Z,9.93
2018-12-12T16:42:56.004Z,9.63
2018-12-12T16:45:23.872Z,8.53
2018-12-12T16:47:51.857Z,10.03
2018-12-12T16:50:19.773Z,9.70
2018-12-12T16:52:47.646Z,10.77
2018-12-12T16:55:15.697Z,12.73
2018-12-12T16:57:43.652Z,9.93
2018-12-12T17:00:11.710Z,10.50
2018-12-12T17:02:39.649Z,11.57
2018-12-12T17:05:07.581Z,11.03
2018-12-12T17:07:35.521Z,13.30
2018-12-12T17:10:03.556Z,11.77
2018-12-12T17:12:31.458Z,10.10
2018-12-12T17:14:59.336Z,11.70
2018-12-12T17:17:27.227Z,11.67
2018-12-12T17:19:55.138Z,10.80
2018-12-12T17:22:23.029Z,10.93
2018-12-12T17:24:50.929Z,11.80
2018-12-12T17:27:18.769Z,11.03
2018-12-12T17:29:46.790Z,9.57
2018-12-12T17:32:14.660Z,10.90
2018-12-12T17:34:42.540Z,12.60
2018-12-12T17:37:10.520Z,11.70
2018-12-12T17:39:38.385Z,11.60
2018-12-12T17:42:06.416Z,11.93
2018-12-12T17:44:34.337Z,11.97
2018-12-12T17:47:02.304Z,13.00
2018-12-12T17:49:30.198Z,12.30
2018-12-12T17:51:58.071Z,10.20
2018-12-12T17:54:25.989Z,13.03
2018-12-12T17:56:53.845Z,14.70
2018-12-12T17:59:21.767Z,11.67
2018-12-12T18:01:49.685Z,22.30
2018-12-12T18:04:17.751Z,14.73
2018-12-12T18:06:45.595Z,11.00
2018-12-12T18:09:13.583Z,12.13
2018-12-12T18:11:41.509Z,13.83
2018-12-12T18:14:09.397Z,12.43
2018-12-12T18:16:37.276Z,13.00
2018-12-12T18:19:05.129Z,11.77
2018-12-12T18:21:33.064Z,13.73
2018-12-12T18:24:00.971Z,12.73
2018-12-12T18:26:28.856Z,15.27
2018-12-12T18:28:56.787Z,11.57
2018-12-12T18:31:24.689Z,14.10
2018-12-12T18:33:52.601Z,22.67
2018-12-12T18:36:20.480Z,17.07
2018-12-12T18:38:48.375Z,19.80
2018-12-12T18:41:16.300Z,17.97
2018-12-12T18:43:44.217Z,18.10
2018-12-12T18:46:12.167Z,17.33
2018-12-12T18:48:40.027Z,14.77
2018-12-12T18:51:07.942Z,12.67
2018-12-12T18:53:49.393Z,11.63
2018-12-12T18:56:17.437Z,12.93
2018-12-12T18:58:45.323Z,11.97
2018-12-12T19:01:13.243Z,10.40
2018-12-12T19:03:41.164Z,12.83
2018-12-12T19:06:09.111Z,15.47
2018-12-12T19:08:37.075Z,14.27
2018-12-12T19:11:04.934Z,13.57
2018-12-12T19:13:32.938Z,10.93
2018-12-12T19:16:00.904Z,14.07
2018-12-12T19:18:28.892Z,13.13
2018-12-12T19:21:00.002Z,14.63
2018-12-12T19:23:27.590Z,14.07
2018-12-12T19:25:55.495Z,12.33
2018-12-12T19:28:23.383Z,15.73
2018-12-12T19:30:51.291Z,19.23
2018-12-12T19:33:19.269Z,17.43
2018-12-12T19:35:47.216Z,17.27
2018-12-12T19:38:15.073Z,17.13
2018-12-12T19:40:42.994Z,18.73
2018-12-12T19:43:11.006Z,17.37
2018-12-12T19:45:39.005Z,17.57
2018-12-12T19:48:07.007Z,16.43
2018-12-12T19:50:34.880Z,16.87
2018-12-12T19:53:02.880Z,18.13
2018-12-12T19:55:30.828Z,16.23
2018-12-12T19:57:58.802Z,18.17
2018-12-12T20:00:26.691Z,16.37
2018-12-12T20:02:54.607Z,19.03
2018-12-12T20:05:22.553Z,13.40
2018-12-12T20:07:50.637Z,16.03
2018-12-12T20:10:18.776Z,13.67
2018-12-12T20:12:46.625Z,13.80
2018-12-12T20:15:29.790Z,16.73
2018-12-12T20:17:57.782Z,16.60
2018-12-12T20:20:25.684Z,14.20
2018-12-12T20:22:54.684Z,13.00
2018-12-12T20:25:22.617Z,13.63
2018-12-12T20:27:50.609Z,11.63
2018-12-12T20:30:18.641Z,12.37
2018-12-12T20:32:46.685Z,12.00
2018-12-12T20:35:14.623Z,12.70
2018-12-12T20:37:42.620Z,11.07
2018-12-12T20:40:10.643Z,10.97
2018-12-12T20:42:38.673Z,10.80
2018-12-12T20:45:06.815Z,11.07
2018-12-12T20:47:34.808Z,8.83
2018-12-12T20:50:02.833Z,10.33
2018-12-12T20:52:30.734Z,10.27
2018-12-12T20:54:58.621Z,10.53
2018-12-12T20:57:26.629Z,11.90
2018-12-12T20:59:54.610Z,8.77
2018-12-12T21:02:22.468Z,10.37
2018-12-12T21:04:50.594Z,10.40
2018-12-12T21:07:19.474Z,9.07
2018-12-12T21:09:57.194Z,10.23
2018-12-12T21:12:25.071Z,11.43
2018-12-12T21:14:56.693Z,9.80
2018-12-12T21:17:24.819Z,14.80
2018-12-12T21:19:52.778Z,12.37
2018-12-12T21:22:20.744Z,10.40
2018-12-12T21:27:47.495Z,9.40
2018-12-12T21:30:17.404Z,12.40
2018-12-12T21:32:45.518Z,8.87
2018-12-12T21:35:13.483Z,9.00
2018-12-12T21:37:42.389Z,10.60
2018-12-12T21:40:10.476Z,10.13
2018-12-12T21:42:38.336Z,10.43
2018-12-12T21:45:06.643Z,9.43
2018-12-12T21:47:34.513Z,8.90
2018-12-12T21:50:02.746Z,9.03
2018-12-12T21:52:30.619Z,10.33
2018-12-12T21:54:58.508Z,9.40
2018-12-12T21:57:26.401Z,13.40
2018-12-12T21:59:54.318Z,11.77
2018-12-12T22:02:22.199Z,10.93
2018-12-12T22:04:50.121Z,11.20
2018-12-12T22:07:18.077Z,9.50
2018-12-12T22:09:45.984Z,8.40
2018-12-12T22:12:13.842Z,10.57
2018-12-12T22:14:41.692Z,13.53
2018-12-12T22:17:09.588Z,10.93
2018-12-12T22:19:37.517Z,7.20
2018-12-12T22:22:05.492Z,8.73
2018-12-12T22:24:33.371Z,7.90
2018-12-12T22:27:01.198Z,9.90
2018-12-12T22:29:30.365Z,8.13
2018-12-12T22:31:58.535Z,9.47
2018-12-12T22:34:26.496Z,7.73
2018-12-12T22:36:54.411Z,8.40
2018-12-12T22:39:22.283Z,8.27
2018-12-12T22:41:50.148Z,7.10
2018-12-12T22:44:18.059Z,7.27
2018-12-12T22:46:45.896Z,5.93
2018-12-12T22:49:13.804Z,5.47
2018-12-12T22:51:41.656Z,5.50
2018-12-12T22:54:09.504Z,7.53
2018-12-12T22:56:37.398Z,6.30
2018-12-12T22:59:05.287Z,6.00
2018-12-12T23:01:33.205Z,5.60
2018-12-12T23:04:01.130Z,7.47
2018-12-12T23:06:29.416Z,5.30
2018-12-12T23:08:57.267Z,7.63
2018-12-12T23:11:25.459Z,5.83
2018-12-12T23:13:53.549Z,7.23
2018-12-12T23:16:21.431Z,7.57
2018-12-12T23:18:49.375Z,5.43
2018-12-12T23:21:17.247Z,6.90
2018-12-12T23:23:45.113Z,5.43
2018-12-12T23:26:13.028Z,4.90
2018-12-12T23:28:40.929Z,6.40
2018-12-12T23:31:08.881Z,4.90
2018-12-12T23:33:36.932Z,5.27
2018-12-12T23:36:04.835Z,6.57
2018-12-12T23:38:32.755Z,7.40
2018-12-12T23:41:00.673Z,5.30
2018-12-12T23:43:28.549Z,4.73
2018-12-12T23:45:56.546Z,7.00
2018-12-12T23:48:24.395Z,7.93
2018-12-12T23:50:52.261Z,4.33
2018-12-12T23:53:20.114Z,4.33
2018-12-12T23:55:47.986Z,4.87
2018-12-12T23:58:15.896Z,4.63
